Time;durP1;ratioP1;P1;durP2;ratioP2;P2;SDS_P1;SDS_P2;PMS_P1;PMS_P2;Temp;Humidity;BMP_temperature;BMP_pressure;BME280_temperature;BME280_humidity;BME280_pressure;Samples;Min_cycle;Max_cycle;Signal;HPM_P1;HPM_P2
2023/05/19 00:00:17;;;;;;;7.15;3.75;;;17.80;85.40;;;;;;5033612;28;20013;-46
2023/05/19 00:02:43;;;;;;;;;;;17.80;85.50;;;;;;5034026;28;20033;-47
2023/05/19 00:05:11;;;;;;;7.60;3.70;;;17.80;87.10;;;;;;5033599;28;19930;-47
2023/05/19 00:07:38;;;;;;;10.07;3.67;;;17.70;86.60;;;;;;5033379;28;20033;-47
2023/05/19 00:10:05;;;;;;;10.52;4.07;;;17.70;87.20;;;;;;5033524;28;20033;-47
2023/05/19 00:12:31;;;;;;;6.75;3.90;;;17.70;88.10;;;;;;5033307;28;20021;-46
2023/05/19 00:14:57;;;;;;;9.20;4.22;;;17.70;88.40;;;;;;5033263;28;20036;-45
2023/05/19 00:17:23;;;;;;;7.18;4.45;;;17.70;88.80;;;;;;5015350;28;20056;-48
2023/05/19 00:19:48;;;;;;;6.15;3.65;;;17.70;88.10;;;;;;5033246;28;20025;-49
2023/05/19 00:22:15;;;;;;;7.20;5.20;;;17.70;88.30;;;;;;5033081;28;20048;-47
2023/05/19 00:24:40;;;;;;;5.20;3.80;;;17.70;88.50;;;;;;5033182;28;20476;-47
2023/05/19 00:27:06;;;;;;;8.07;4.60;;;17.70;88.60;;;;;;5033017;28;20045;-49
2023/05/19 00:29:32;;;;;;;9.00;4.00;;;17.60;88.70;;;;;;5033060;28;20013;-47
2023/05/19 00:31:57;;;;;;;6.28;3.58;;;17.60;89.40;;;;;;5032982;28;20029;-49
2023/05/19 00:34:25;;;;;;;5.97;4.07;;;17.60;89.80;;;;;;5015073;28;20025;-46
2023/05/19 00:36:50;;;;;;;6.22;4.00;;;17.60;89.90;;;;;;5032632;28;20057;-46
2023/05/19 00:39:16;;;;;;;8.20;4.25;;;17.60;90.20;;;;;;5032909;28;20515;-46
2023/05/19 00:41:42;;;;;;;5.15;3.85;;;17.50;90.40;;;;;;5032943;28;20026;-47
2023/05/19 00:44:07;;;;;;;7.32;4.10;;;17.50;90.70;;;;;;5032849;28;20025;-46
2023/05/19 00:46:33;;;;;;;6.07;4.13;;;17.40;90.90;;;;;;5032774;28;20033;-49
2023/05/19 00:48:59;;;;;;;7.75;4.68;;;17.40;91.10;;;;;;5032407;28;20029;-46
2023/05/19 00:51:27;;;;;;;5.80;3.80;;;17.40;91.70;;;;;;5032551;28;20079;-46
2023/05/19 00:53:53;;;;;;;5.18;4.53;;;17.40;91.80;;;;;;5032617;28;20025;-48
2023/05/19 00:56:20;;;;;;;7.13;4.63;;;17.40;91.90;;;;;;5032635;28;20029;-46
2023/05/19 00:58:46;;;;;;;8.60;4.80;;;17.40;91.80;;;;;;5032319;28;20022;-46
2023/05/19 01:01:15;;;;;;;4.90;3.90;;;17.40;92.10;;;;;;5032357;28;20056;-46
2023/05/19 01:03:42;;;;;;;6.30;3.95;;;17.30;92.30;;;;;;5032355;28;20016;-49
2023/05/19 01:06:08;;;;;;;6.57;3.92;;;17.30;92.70;;;;;;5032469;28;20074;-46
2023/05/19 01:08:35;;;;;;;7.32;3.97;;;17.30;92.70;;;;;;5032182;28;20096;-48
2023/05/19 01:11:01;;;;;;;9.15;4.50;;;17.30;92.70;;;;;;5032335;28;20025;-46
2023/05/19 01:13:28;;;;;;;5.78;3.90;;;17.30;92.80;;;;;;5031936;28;20026;-47
2023/05/19 01:16:30;;;;;;;5.75;3.55;;;17.30;92.90;;;;;;5032303;28;20025;-46
2023/05/19 01:19:11;;;;;;;6.43;4.05;;;17.30;92.60;;;;;;5032027;28;20255;-46
2023/05/19 01:22:05;;;;;;;9.90;4.53;;;17.30;93.30;;;;;;5032020;28;20414;-46
2023/05/19 01:25:05;;;;;;;5.85;4.00;;;17.20;92.60;;;;;;5031933;28;20044;-48
2023/05/19 01:27:31;;;;;;;5.90;3.60;;;17.30;92.90;;;;;;5014199;28;20446;-47
2023/05/19 01:30:22;;;;;;;4.13;3.72;;;17.20;93.40;;;;;;5032010;28;20025;-46
2023/05/19 01:32:52;;;;;;;8.00;3.85;;;17.20;93.40;;;;;;5031874;28;20025;-47
2023/05/19 01:35:19;;;;;;;7.72;4.47;;;17.20;94.00;;;;;;5031838;28;20025;-47
2023/05/19 01:37:45;;;;;;;;;;;17.20;94.10;;;;;;5032104;28;20559;-48
2023/05/19 01:40:15;;;;;;;5.20;3.70;;;17.20;94.00;;;;;;5031801;28;20012;-47
2023/05/19 01:42:44;;;;;;;5.90;4.28;;;17.10;93.60;;;;;;5031686;28;20025;-48
2023/05/19 01:45:11;;;;;;;5.55;4.32;;;17.20;93.90;;;;;;5031628;28;20025;-47
2023/05/19 01:47:42;;;;;;;6.38;4.07;;;17.20;94.40;;;;;;5031645;28;20559;-47
2023/05/19 01:50:08;;;;;;;7.45;4.00;;;17.20;93.80;;;;;;5014011;28;20104;-47
2023/05/19 01:52:34;;;;;;;5.77;4.07;;;17.10;94.60;;;;;;5031598;28;20565;-46
2023/05/19 01:55:00;;;;;;;7.57;4.25;;;17.10;94.60;;;;;;5031577;28;20025;-46
2023/05/19 01:57:34;;;;;;;6.07;4.35;;;17.10;94.60;;;;;;5031494;28;20132;-46
2023/05/19 02:00:15;;;;;;;7.35;4.30;;;17.10;94.40;;;;;;5031815;28;20377;-48
2023/05/19 02:03:11;;;;;;;6.97;3.95;;;17.00;94.40;;;;;;5031515;28;20053;-46
2023/05/19 02:05:41;;;;;;;5.18;4.22;;;17.00;94.00;;;;;;5031523;28;20198;-46
2023/05/19 02:08:17;;;;;;;7.97;4.35;;;17.10;94.90;;;;;;5030879;28;20509;-48
2023/05/19 02:10:50;;;;;;;8.65;4.50;;;17.10;94.50;;;;;;5031590;28;20026;-46
2023/05/19 02:13:20;;;;;;;5.68;4.55;;;17.10;95.00;;;;;;5031447;28;20030;-47
2023/05/19 02:15:47;;;;;;;6.70;4.03;;;17.00;94.90;;;;;;5031402;28;20032;-46
2023/05/19 02:18:16;;;;;;;5.50;4.25;;;17.00;95.20;;;;;;5031730;28;20029;-47
2023/05/19 02:20:42;;;;;;;5.90;4.25;;;17.00;95.00;;;;;;5031295;28;20031;-47
2023/05/19 02:23:08;;;;;;;5.43;3.70;;;17.00;94.80;;;;;;5031180;28;20029;-46
2023/05/19 02:25:33;;;;;;;6.65;4.53;;;16.90;95.00;;;;;;5031363;28;20025;-46
2023/05/19 02:27:59;;;;;;;8.45;4.88;;;16.90;95.00;;;;;;5031203;28;20484;-49
2023/05/19 02:30:25;;;;;;;8.32;4.72;;;16.90;94.90;;;;;;5031300;28;20455;-46
2023/05/19 02:32:52;;;;;;;6.57;4.20;;;16.90;95.00;;;;;;5031349;28;20053;-46
2023/05/19 02:35:19;;;;;;;7.10;4.85;;;16.90;94.80;;;;;;5029991;28;20075;-46
2023/05/19 02:37:45;;;;;;;6.60;4.75;;;16.90;94.70;;;;;;5030183;28;20026;-46
2023/05/19 02:40:10;;;;;;;6.15;4.13;;;16.90;95.00;;;;;;5031186;28;20075;-47
2023/05/19 02:42:36;;;;;;;8.77;5.32;;;16.90;94.80;;;;;;5031097;28;20033;-47
2023/05/19 02:45:02;;;;;;;8.68;5.35;;;16.80;94.60;;;;;;5031149;28;20105;-46
2023/05/19 02:47:28;;;;;;;5.95;3.92;;;16.80;94.20;;;;;;5013326;28;20634;-46
2023/05/19 02:49:53;;;;;;;8.40;4.72;;;16.80;94.10;;;;;;5030998;28;20025;-49
2023/05/19 02:52:19;;;;;;;7.22;5.00;;;16.80;94.00;;;;;;5013021;28;20029;-46
2023/05/19 02:54:45;;;;;;;11.90;5.00;;;16.70;93.90;;;;;;5031202;28;20057;-47
2023/05/19 02:57:11;;;;;;;8.60;5.40;;;16.70;94.00;;;;;;5030604;28;20395;-48
2023/05/19 02:59:36;;;;;;;5.45;4.43;;;16.80;94.00;;;;;;5030755;28;20026;-49
2023/05/19 03:02:02;;;;;;;6.70;4.78;;;16.80;93.90;;;;;;5023760;28;20504;-46
2023/05/19 03:04:29;;;;;;;7.53;4.68;;;16.80;94.20;;;;;;5030603;28;20496;-47
2023/05/19 03:06:55;;;;;;;7.72;5.45;;;16.80;94.20;;;;;;5030329;28;20510;-48
2023/05/19 03:09:20;;;;;;;6.80;4.72;;;16.70;94.20;;;;;;5030817;28;20029;-48
2023/05/19 03:11:46;;;;;;;11.98;4.78;;;16.70;94.20;;;;;;5030697;28;20048;-46
2023/05/19 03:14:14;;;;;;;11.35;4.53;;;16.70;94.00;;;;;;5031170;28;20079;-46
2023/05/19 03:16:40;;;;;;;8.43;4.47;;;16.70;93.50;;;;;;4996909;28;20105;-47
2023/05/19 03:19:07;;;;;;;7.80;4.47;;;16.70;93.70;;;;;;5030311;28;20021;-48
2023/05/19 03:21:33;;;;;;;8.52;4.55;;;16.70;93.50;;;;;;5030888;28;20022;-50
2023/05/19 03:24:00;;;;;;;34.58;6.25;;;16.70;93.30;;;;;;5031977;28;20048;-48
2023/05/19 03:26:25;;;;;;;7.90;4.97;;;16.70;93.20;;;;;;5033163;28;20384;-48
2023/05/19 03:28:51;;;;;;;7.65;4.35;;;16.70;92.90;;;;;;5016113;28;20037;-47
2023/05/19 03:31:17;;;;;;;9.82;5.18;;;16.70;92.70;;;;;;5033927;28;20029;-48
2023/05/19 03:33:43;;;;;;;7.15;4.35;;;16.60;92.80;;;;;;5033884;28;20022;-48
2023/05/19 03:36:08;;;;;;;8.93;3.70;;;16.60;93.00;;;;;;5034003;28;20029;-47
2023/05/19 03:38:34;;;;;;;7.35;4.40;;;16.60;93.30;;;;;;5033614;28;20433;-47
2023/05/19 03:41:00;;;;;;;7.78;4.50;;;16.60;93.20;;;;;;5016348;28;20048;-51
2023/05/19 03:43:25;;;;;;;7.88;4.70;;;16.60;93.10;;;;;;5033640;28;20026;-46
2023/05/19 03:45:52;;;;;;;6.38;4.38;;;16.60;92.70;;;;;;5033719;28;20029;-48
2023/05/19 03:48:18;;;;;;;8.38;4.10;;;16.60;92.80;;;;;;5033454;28;20025;-46
2023/05/19 03:50:43;;;;;;;9.93;4.47;;;16.60;92.80;;;;;;5033597;28;20027;-45
2023/05/19 03:53:09;;;;;;;8.38;4.28;;;16.60;92.70;;;;;;5033519;28;20031;-48
2023/05/19 03:55:36;;;;;;;8.10;4.07;;;16.50;92.60;;;;;;5033550;28;20276;-46
2023/05/19 03:58:02;;;;;;;10.13;4.45;;;16.50;92.80;;;;;;5033435;28;20384;-49
2023/05/19 04:00:28;;;;;;;8.17;4.33;;;16.50;92.80;;;;;;5033107;28;20026;-47
2023/05/19 04:02:53;;;;;;;6.97;4.15;;;16.50;92.60;;;;;;5033265;28;20634;-49
2023/05/19 04:05:19;;;;;;;7.22;4.35;;;16.40;92.70;;;;;;5033630;28;20021;-46
2023/05/19 04:07:45;;;;;;;8.23;4.13;;;16.40;92.60;;;;;;5015309;28;20030;-46
2023/05/19 04:10:11;;;;;;;6.93;4.75;;;16.40;92.90;;;;;;5033312;28;20100;-46
2023/05/19 04:12:37;;;;;;;6.65;4.22;;;16.40;92.90;;;;;;5015340;28;20528;-47
2023/05/19 04:15:04;;;;;;;10.45;4.30;;;16.40;93.10;;;;;;5033166;28;20021;-46
2023/05/19 04:17:30;;;;;;;11.77;5.03;;;16.40;93.20;;;;;;5033091;28;20021;-49
2023/05/19 04:19:56;;;;;;;7.85;4.63;;;16.40;93.40;;;;;;5033256;28;20499;-46
2023/05/19 04:22:22;;;;;;;5.63;4.40;;;16.40;93.40;;;;;;5032763;28;20412;-47
2023/05/19 04:24:49;;;;;;;7.13;4.75;;;16.40;93.50;;;;;;5033038;28;20021;-46
2023/05/19 04:27:15;;;;;;;;;;;16.40;93.20;;;;;;5033169;28;20027;-47
2023/05/19 04:29:41;;;;;;;14.27;6.18;;;16.40;93.50;;;;;;5032919;28;19999;-46
2023/05/19 04:32:07;;;;;;;6.70;4.53;;;16.30;93.10;;;;;;5032513;28;20045;-47
2023/05/19 04:34:39;;;;;;;5.88;4.28;;;16.30;93.20;;;;;;5032764;28;20494;-48
2023/05/19 04:37:08;;;;;;;5.75;4.47;;;16.30;93.30;;;;;;5032513;28;20080;-46
2023/05/19 04:39:37;;;;;;;10.23;4.57;;;16.40;93.20;;;;;;5032680;28;20032;-46
2023/05/19 04:42:03;;;;;;;9.15;4.80;;;16.30;93.20;;;;;;5032726;28;20025;-46
2023/05/19 04:44:30;;;;;;;9.75;4.47;;;16.30;93.50;;;;;;5032627;28;20063;-46
2023/05/19 04:46:56;;;;;;;8.07;3.77;;;16.40;93.40;;;;;;5032676;28;20373;-46
2023/05/19 04:49:23;;;;;;;7.85;5.55;;;16.30;93.60;;;;;;5032355;28;20029;-46
2023/05/19 04:51:50;;;;;;;6.72;4.65;;;16.30;93.80;;;;;;5014623;28;20026;-47
2023/05/19 04:54:15;;;;;;;;;;;16.30;94.00;;;;;;5032691;28;20040;-46
2023/05/19 04:56:42;;;;;;;7.68;5.68;;;16.30;94.30;;;;;;5032414;28;20283;-48
2023/05/19 04:59:08;;;;;;;10.13;6.75;;;16.30;94.30;;;;;;5032222;28;20025;-46
2023/05/19 05:01:39;;;;;;;15.35;6.72;;;16.30;94.30;;;;;;5032603;28;20446;-48
2023/05/19 05:04:05;;;;;;;9.25;6.95;;;16.40;94.50;;;;;;5032303;28;20503;-46
2023/05/19 05:06:31;;;;;;;15.32;6.45;;;16.40;94.50;;;;;;5032185;28;20061;-46
2023/05/19 05:08:58;;;;;;;11.70;6.13;;;16.40;94.60;;;;;;5031904;28;20475;-46
2023/05/19 05:11:25;;;;;;;11.68;6.55;;;16.40;94.90;;;;;;5032074;28;20025;-46
2023/05/19 05:13:51;;;;;;;13.52;6.78;;;16.50;95.00;;;;;;5032121;28;20395;-46
2023/05/19 05:16:17;;;;;;;10.50;6.13;;;16.50;95.00;;;;;;5032038;28;20072;-46
2023/05/19 05:18:43;;;;;;;9.52;5.97;;;16.50;95.00;;;;;;5031918;28;20431;-46
2023/05/19 05:21:09;;;;;;;11.23;5.53;;;16.50;94.70;;;;;;5031936;28;20386;-46
2023/05/19 05:23:35;;;;;;;9.63;5.63;;;16.60;94.40;;;;;;5014679;28;20124;-46
2023/05/19 05:26:12;;;;;;;14.75;6.40;;;16.60;94.70;;;;;;5031798;28;20113;-46
2023/05/19 05:28:40;;;;;;;;;;;16.60;94.60;;;;;;5032205;28;20053;-45
2023/05/19 05:31:05;;;;;;;10.55;5.47;;;16.60;94.30;;;;;;5031862;28;19996;-47
2023/05/19 05:33:31;;;;;;;13.30;5.88;;;16.60;95.00;;;;;;5031715;28;20519;-48
2023/05/19 05:35:57;;;;;;;13.45;5.35;;;16.60;95.40;;;;;;5031516;28;20086;-46
2023/05/19 05:38:23;;;;;;;8.68;5.35;;;16.60;95.50;;;;;;5013743;28;20021;-47
2023/05/19 05:40:49;;;;;;;12.43;4.95;;;16.60;95.80;;;;;;5031694;28;20479;-46
2023/05/19 05:43:14;;;;;;;13.98;6.85;;;16.60;96.00;;;;;;5030699;28;20037;-48
2023/05/19 05:45:40;;;;;;;9.85;5.78;;;16.50;96.40;;;;;;5030952;28;20525;-46
2023/05/19 05:48:06;;;;;;;8.10;5.03;;;16.50;96.70;;;;;;5013713;28;20022;-47
2023/05/19 05:50:32;;;;;;;14.97;5.17;;;16.50;97.10;;;;;;5031439;28;20483;-46
2023/05/19 05:53:01;;;;;;;9.15;5.55;;;16.50;97.10;;;;;;5031347;28;20120;-46
2023/05/19 05:55:27;;;;;;;13.05;5.32;;;16.50;96.70;;;;;;5031692;28;20025;-47
2023/05/19 05:57:53;;;;;;;8.35;5.15;;;16.50;96.80;;;;;;5031369;28;20025;-47
2023/05/19 06:00:20;;;;;;;8.02;5.63;;;16.50;96.80;;;;;;5031556;28;20115;-46
2023/05/19 06:02:49;;;;;;;9.23;5.95;;;16.50;96.70;;;;;;5031328;28;20021;-46
2023/05/19 06:05:15;;;;;;;13.30;5.03;;;16.50;96.60;;;;;;5031441;28;20059;-47
2023/05/19 06:07:41;;;;;;;9.20;5.78;;;16.50;96.80;;;;;;5031201;28;20030;-47
2023/05/19 06:10:08;;;;;;;12.38;5.55;;;16.50;96.90;;;;;;5031395;28;20072;-49
2023/05/19 06:12:34;;;;;;;7.88;5.50;;;16.50;96.80;;;;;;5031327;28;20036;-49
2023/05/19 06:15:01;;;;;;;8.98;5.70;;;16.50;96.90;;;;;;5031313;28;20396;-47
2023/05/19 06:17:27;;;;;;;10.95;5.32;;;16.50;96.70;;;;;;5031303;28;20052;-47
2023/05/19 06:19:53;;;;;;;7.63;5.78;;;16.50;96.60;;;;;;5031282;28;20049;-46
2023/05/19 06:22:19;;;;;;;9.60;5.60;;;16.60;96.80;;;;;;5013378;28;20037;-48
2023/05/19 06:24:44;;;;;;;10.90;5.15;;;16.60;97.10;;;;;;5031238;28;20492;-48
2023/05/19 06:27:10;;;;;;;7.30;5.35;;;16.60;97.30;;;;;;5031087;28;20511;-49
2023/05/19 06:29:36;;;;;;;11.32;5.35;;;16.60;97.30;;;;;;5031297;28;20026;-46
2023/05/19 06:32:02;;;;;;;12.27;6.32;;;16.60;97.10;;;;;;5030489;28;20025;-45
2023/05/19 06:34:28;;;;;;;6.03;4.87;;;16.60;96.90;;;;;;5029845;28;20025;-46
2023/05/19 06:36:53;;;;;;;9.90;4.47;;;16.60;96.70;;;;;;5030780;28;20720;-46
2023/05/19 06:39:19;;;;;;;7.35;4.93;;;16.70;96.70;;;;;;5013150;28;20029;-45
2023/05/19 06:41:45;;;;;;;9.60;5.57;;;16.70;97.10;;;;;;5030992;28;20014;-46
2023/05/19 06:44:10;;;;;;;13.73;5.38;;;16.70;97.30;;;;;;5032471;28;20056;-45
2023/05/19 06:46:36;;;;;;;12.43;5.70;;;16.70;97.50;;;;;;5030691;28;20151;-45
2023/05/19 06:49:02;;;;;;;8.10;4.68;;;16.80;97.40;;;;;;5030477;28;20080;-48
2023/05/19 06:51:27;;;;;;;8.82;5.70;;;16.80;97.60;;;;;;5030734;28;20454;-47
2023/05/19 06:53:53;;;;;;;9.93;5.93;;;16.80;97.50;;;;;;5031732;28;20044;-49
2023/05/19 06:56:20;;;;;;;11.52;5.45;;;16.80;97.40;;;;;;5034852;28;20014;-52
2023/05/19 06:58:46;;;;;;;9.80;5.30;;;16.90;97.50;;;;;;5034117;28;20025;-47
2023/05/19 07:01:11;;;;;;;9.82;5.68;;;16.90;97.20;;;;;;5034704;28;20028;-49
2023/05/19 07:03:37;;;;;;;10.40;5.13;;;16.80;97.50;;;;;;5034065;28;20020;-47
2023/05/19 07:06:03;;;;;;;7.18;4.53;;;16.90;97.90;;;;;;5034789;28;20025;-50
2023/05/19 07:08:28;;;;;;;10.85;5.90;;;16.90;97.80;;;;;;5034166;28;20570;-51
2023/05/19 07:10:54;;;;;;;8.80;4.88;;;17.00;97.90;;;;;;5034604;28;20029;-53
2023/05/19 07:13:21;;;;;;;11.48;6.07;;;17.10;98.00;;;;;;5034267;28;20376;-52
2023/05/19 07:15:47;;;;;;;8.23;5.20;;;17.10;97.60;;;;;;5034631;28;20028;-43
2023/05/19 07:18:14;;;;;;;8.48;5.40;;;17.20;97.30;;;;;;5033917;28;20105;-49
2023/05/19 07:20:39;;;;;;;10.02;6.38;;;17.20;97.30;;;;;;5034549;28;20076;-50
2023/05/19 07:23:05;;;;;;;7.78;5.60;;;17.20;97.00;;;;;;5016027;28;20451;-54
2023/05/19 07:25:32;;;;;;;8.27;5.32;;;17.30;97.50;;;;;;5034182;28;20051;-48
2023/05/19 07:27:57;;;;;;;9.80;5.75;;;17.40;97.20;;;;;;5033830;28;20063;-47
2023/05/19 07:30:23;;;;;;;15.23;5.75;;;17.50;97.40;;;;;;5034120;28;20022;-46
2023/05/19 07:32:49;;;;;;;7.80;5.57;;;17.60;97.00;;;;;;5033479;28;20029;-49
2023/05/19 07:35:15;;;;;;;10.38;6.07;;;17.70;96.40;;;;;;5033976;28;20033;-51
2023/05/19 07:37:40;;;;;;;12.50;5.65;;;17.70;95.70;;;;;;5033482;28;20479;-49
2023/05/19 07:40:07;;;;;;;10.35;6.53;;;17.80;96.00;;;;;;5033894;28;20395;-49
2023/05/19 07:42:33;;;;;;;19.17;7.70;;;17.80;96.10;;;;;;5033548;28;20043;-47
2023/05/19 07:44:59;;;;;;;8.47;5.07;;;17.90;96.00;;;;;;5041280;28;20401;-52
2023/05/19 07:47:25;;;;;;;11.10;5.68;;;18.00;95.20;;;;;;5053456;28;20035;-50
2023/05/19 07:49:50;;;;;;;8.73;5.30;;;17.90;94.60;;;;;;5053735;28;20375;-49
2023/05/19 07:52:17;;;;;;;10.15;5.43;;;17.90;94.60;;;;;;5053657;28;20437;-51
2023/05/19 07:54:43;;;;;;;6.50;5.03;;;18.00;94.30;;;;;;5053593;28;20106;-52
2023/05/19 07:57:09;;;;;;;7.20;4.78;;;18.10;94.10;;;;;;5053446;28;20047;-50
2023/05/19 07:59:35;;;;;;;7.35;5.05;;;18.20;94.30;;;;;;5035643;28;20017;-48
2023/05/19 08:02:00;;;;;;;8.40;5.68;;;18.20;93.70;;;;;;5053275;28;20531;-47
2023/05/19 08:04:26;;;;;;;10.52;5.65;;;18.20;92.70;;;;;;5053456;28;20029;-55
2023/05/19 08:06:52;;;;;;;8.57;6.15;;;18.10;92.80;;;;;;5034991;28;20572;-49
2023/05/19 08:09:18;;;;;;;9.57;5.47;;;18.10;93.30;;;;;;5053213;28;20029;-49
2023/05/19 08:11:45;;;;;;;8.80;5.85;;;18.10;93.70;;;;;;5053258;28;20029;-54
2023/05/19 08:14:11;;;;;;;9.18;4.85;;;18.10;93.20;;;;;;5053144;28;20075;-55
2023/05/19 08:16:37;;;;;;;10.05;5.47;;;18.20;93.00;;;;;;5053477;28;20021;-51
2023/05/19 08:19:04;;;;;;;8.85;5.78;;;18.20;92.10;;;;;;5053042;28;20453;-53
2023/05/19 08:21:33;;;;;;;8.35;5.18;;;18.20;92.20;;;;;;5053055;28;20463;-54
2023/05/19 08:24:00;;;;;;;9.75;5.82;;;18.20;92.90;;;;;;5053114;28;20028;-48
2023/05/19 08:26:26;;;;;;;;;;;18.20;92.80;;;;;;5053494;28;20430;-50
2023/05/19 08:28:52;;;;;;;9.90;5.80;;;18.30;92.20;;;;;;5052801;28;19928;-50
2023/05/19 08:31:18;;;;;;;9.15;6.03;;;18.30;92.80;;;;;;5052941;28;20403;-52
2023/05/19 08:33:44;;;;;;;11.30;6.13;;;18.50;92.60;;;;;;5052815;28;20483;-47
2023/05/19 08:36:10;;;;;;;5.83;4.73;;;18.60;92.50;;;;;;5052906;28;20056;-47
2023/05/19 08:38:36;;;;;;;7.37;5.53;;;18.70;91.60;;;;;;5052546;28;20256;-52
2023/05/19 08:41:02;;;;;;;7.95;5.53;;;18.70;91.10;;;;;;5052777;28;20017;-54
2023/05/19 08:43:27;;;;;;;11.52;5.07;;;18.70;91.40;;;;;;5052601;28;20394;-53
2023/05/19 08:45:54;;;;;;;10.95;6.78;;;18.90;91.80;;;;;;5052629;28;20033;-50
2023/05/19 08:48:21;;;;;;;5.75;5.15;;;19.00;92.00;;;;;;5050983;28;20028;-53
2023/05/19 08:51:16;;;;;;;8.40;5.30;;;19.10;92.30;;;;;;5052356;28;20100;-53
2023/05/19 08:53:49;;;;;;;8.98;6.30;;;19.10;91.20;;;;;;5050170;28;20055;-51
2023/05/19 08:56:23;;;;;;;12.88;6.32;;;19.10;92.40;;;;;;5052340;28;20158;-51
2023/05/19 08:58:50;;;;;;;10.57;5.85;;;19.10;92.60;;;;;;5052157;28;20031;-55
2023/05/19 09:01:16;;;;;;;;;;;19.10;93.20;;;;;;5052729;28;20120;-50
2023/05/19 09:03:48;;;;;;;11.02;6.57;;;19.10;93.90;;;;;;5034395;28;19951;-52
2023/05/19 09:06:14;;;;;;;12.52;7.78;;;19.10;93.50;;;;;;5052178;28;20028;-54
2023/05/19 09:08:41;;;;;;;9.05;6.72;;;19.30;94.80;;;;;;5034041;28;20021;-53
2023/05/19 09:11:10;;;;;;;9.30;6.75;;;19.50;93.70;;;;;;5052050;28;20092;-54
2023/05/19 09:13:36;;;;;;;7.90;5.43;;;19.60;94.30;;;;;;5052204;28;20033;-49
2023/05/19 09:16:02;;;;;;;8.02;5.43;;;19.60;92.90;;;;;;5051912;28;20537;-50
2023/05/19 09:18:28;;;;;;;10.10;6.53;;;19.60;92.40;;;;;;5050892;28;20539;-52
2023/05/19 09:20:59;;;;;;;11.82;6.07;;;19.60;92.30;;;;;;5034013;28;20264;-48
2023/05/19 09:23:34;;;;;;;11.00;6.43;;;19.60;92.90;;;;;;5051664;28;20029;-49
2023/05/19 09:26:06;;;;;;;8.13;6.50;;;19.60;92.80;;;;;;5051785;28;20506;-54
2023/05/19 09:28:33;;;;;;;7.28;6.18;;;19.60;92.20;;;;;;5051658;28;20056;-52
2023/05/19 09:31:04;;;;;;;9.68;5.88;;;19.60;92.00;;;;;;5051749;28;20105;-48
2023/05/19 09:33:32;;;;;;;10.57;5.97;;;19.70;92.10;;;;;;5051603;28;20040;-51
2023/05/19 09:35:58;;;;;;;7.50;5.57;;;19.80;91.10;;;;;;5051534;28;20055;-54
2023/05/19 09:38:25;;;;;;;9.45;6.45;;;19.70;91.00;;;;;;5033741;28;20449;-51
2023/05/19 09:40:52;;;;;;;9.98;5.85;;;19.70;90.50;;;;;;5051645;28;20035;-49
2023/05/19 09:43:18;;;;;;;10.43;6.00;;;19.60;90.60;;;;;;5051537;28;20017;-49
2023/05/19 09:45:47;;;;;;;10.68;6.20;;;19.50;91.00;;;;;;5051549;28;20503;-48
2023/05/19 09:48:14;;;;;;;8.57;6.38;;;19.50;92.20;;;;;;5051281;28;20025;-49
2023/05/19 09:50:43;;;;;;;11.98;6.68;;;19.50;92.20;;;;;;5051362;28;20033;-54
2023/05/19 09:53:12;;;;;;;9.18;5.80;;;19.60;92.40;;;;;;5051389;28;20480;-49
2023/05/19 09:55:40;;;;;;;9.23;6.70;;;19.50;92.30;;;;;;5051428;28;20033;-54
2023/05/19 09:58:06;;;;;;;9.70;6.00;;;19.60;92.80;;;;;;5051160;28;20021;-54
2023/05/19 10:00:32;;;;;;;6.75;6.03;;;19.40;92.10;;;;;;5051067;28;20021;-49
2023/05/19 10:02:59;;;;;;;8.43;6.90;;;19.20;93.20;;;;;;5051316;28;20020;-57
2023/05/19 10:05:27;;;;;;;9.88;6.80;;;19.30;93.20;;;;;;5051379;28;20052;-53
2023/05/19 10:07:53;;;;;;;;;;;19.40;93.00;;;;;;5051633;28;20414;-57
2023/05/19 10:10:20;;;;;;;9.93;5.95;;;19.40;93.10;;;;;;5033498;28;19995;-50
2023/05/19 10:12:47;;;;;;;11.90;7.38;;;19.30;94.40;;;;;;5050408;28;20024;-47
2023/05/19 10:15:14;;;;;;;;;;;19.50;94.40;;;;;;5049993;28;20029;-49
2023/05/19 10:17:41;;;;;;;7.63;6.93;;;19.50;94.20;;;;;;5031437;28;20332;-47
2023/05/19 10:20:09;;;;;;;9.15;6.40;;;19.40;94.80;;;;;;5027855;28;20578;-49
2023/05/19 10:22:36;;;;;;;10.52;7.10;;;19.40;95.00;;;;;;5030341;28;20037;-52
2023/05/19 10:25:03;;;;;;;7.78;6.80;;;19.50;95.50;;;;;;5030835;28;20522;-50
2023/05/19 10:27:31;;;;;;;10.68;6.70;;;19.50;94.90;;;;;;5029338;28;20132;-50
2023/05/19 10:30:03;;;;;;;9.55;7.45;;;19.50;95.10;;;;;;5032243;28;20083;-55
2023/05/19 10:32:32;;;;;;;12.38;7.07;;;19.60;95.00;;;;;;5033482;28;20029;-54
2023/05/19 10:35:22;;;;;;;9.82;7.05;;;19.70;94.50;;;;;;5035038;28;20025;-52
2023/05/19 10:38:10;;;;;;;13.57;8.07;;;19.80;93.00;;;;;;5034574;28;20487;-49
2023/05/19 10:40:39;;;;;;;9.43;7.00;;;19.70;93.70;;;;;;5033894;28;20036;-50
2023/05/19 10:43:37;;;;;;;10.77;7.25;;;19.60;94.20;;;;;;5034217;28;20484;-51
2023/05/19 10:46:04;;;;;;;13.45;8.00;;;19.60;94.40;;;;;;5026522;28;20036;-53
2023/05/19 10:48:33;;;;;;;10.13;7.65;;;19.50;95.40;;;;;;5034398;28;20029;-52
2023/05/19 10:50:59;;;;;;;11.30;8.45;;;19.60;95.60;;;;;;5034485;28;20590;-49
2023/05/19 10:53:33;;;;;;;9.80;7.10;;;19.60;96.10;;;;;;5034289;28;20029;-51
2023/05/19 10:56:05;;;;;;;8.70;6.65;;;19.60;94.50;;;;;;5034836;28;20056;-48
2023/05/19 10:58:43;;;;;;;9.52;6.70;;;19.70;95.10;;;;;;5032591;28;20105;-48
2023/05/19 11:01:13;;;;;;;12.77;7.95;;;19.60;94.50;;;;;;5034048;28;20404;-48
2023/05/19 11:03:45;;;;;;;10.38;7.32;;;19.50;95.20;;;;;;5033412;28;20725;-56
2023/05/19 11:06:30;;;;;;;11.10;7.35;;;19.50;95.30;;;;;;5029198;28;20021;-51
2023/05/19 11:09:17;;;;;;;11.27;7.78;;;19.50;96.30;;;;;;5026058;28;20072;-58
2023/05/19 11:11:44;;;;;;;10.55;7.22;;;19.60;95.90;;;;;;5031800;28;20026;-49
2023/05/19 11:14:12;;;;;;;8.05;6.22;;;19.70;96.00;;;;;;5033693;28;20463;-56
2023/05/19 11:16:38;;;;;;;84.90;70.00;;;19.60;95.40;;;;;;5034141;28;20462;-57
2023/05/19 11:19:05;;;;;;;10.73;8.40;;;19.60;95.70;;;;;;5030364;28;20045;-56
2023/05/19 11:21:41;;;;;;;10.40;7.13;;;19.60;95.50;;;;;;5033591;28;20021;-50
2023/05/19 11:26:42;;;;;;;9.40;6.00;;;19.80;95.70;;;;;;5007698;28;20049;-52
2023/05/19 11:29:09;;;;;;;10.85;7.22;;;19.80;95.20;;;;;;5004598;28;20096;-48
2023/05/19 11:31:35;;;;;;;8.75;6.93;;;19.80;95.90;;;;;;5008921;28;20368;-53
2023/05/19 11:34:01;;;;;;;12.03;7.27;;;19.80;95.80;;;;;;5000808;28;20027;-52
2023/05/19 11:36:27;;;;;;;10.53;7.37;;;19.80;95.50;;;;;;5006843;28;20109;-51
2023/05/19 11:38:54;;;;;;;12.63;7.57;;;19.80;95.80;;;;;;4995809;28;20030;-55
2023/05/19 11:41:20;;;;;;;14.23;7.50;;;19.80;95.40;;;;;;5006890;28;20459;-48
2023/05/19 11:43:46;;;;;;;11.07;6.87;;;19.70;94.90;;;;;;5014457;28;20623;-52
2023/05/19 11:46:13;;;;;;;15.98;7.82;;;19.50;95.80;;;;;;5002015;28;20041;-50
2023/05/19 11:48:39;;;;;;;7.45;6.75;;;19.40;96.00;;;;;;4994610;28;20062;-50
2023/05/19 11:51:07;;;;;;;9.60;7.22;;;19.40;95.70;;;;;;4994533;28;20460;-51
2023/05/19 11:53:34;;;;;;;13.07;7.50;;;19.20;95.90;;;;;;4994405;28;20037;-51
2023/05/19 11:56:03;;;;;;;8.88;7.63;;;19.20;96.00;;;;;;4982229;28;20485;-50
2023/05/19 11:58:29;;;;;;;11.13;7.80;;;19.20;96.00;;;;;;4994384;28;20022;-50
2023/05/19 12:00:55;;;;;;;10.05;7.40;;;19.00;96.40;;;;;;4994007;28;20049;-49
2023/05/19 12:03:26;;;;;;;12.07;8.65;;;18.90;97.50;;;;;;4994393;28;20026;-53
2023/05/19 12:05:52;;;;;;;13.38;8.13;;;18.80;97.80;;;;;;4993466;28;20404;-51
2023/05/19 12:08:18;;;;;;;12.32;8.68;;;18.70;99.30;;;;;;4994106;28;20397;-52
2023/05/19 12:10:49;;;;;;;12.65;8.32;;;18.70;99.40;;;;;;4994234;28;20026;-52
2023/05/19 12:13:14;;;;;;;13.05;8.45;;;18.80;99.70;;;;;;4993009;28;20030;-53
2023/05/19 12:15:40;;;;;;;9.38;7.68;;;19.00;99.20;;;;;;4993680;28;20037;-52
2023/05/19 12:18:06;;;;;;;10.63;8.20;;;19.00;98.20;;;;;;4994048;28;20476;-53
2023/05/19 12:20:34;;;;;;;9.10;7.25;;;18.90;97.60;;;;;;4993852;28;20489;-50
2023/05/19 12:23:00;;;;;;;12.35;8.93;;;18.80;98.20;;;;;;4994024;28;20092;-52
2023/05/19 12:25:28;;;;;;;12.98;7.47;;;18.70;98.90;;;;;;5003657;28;20380;-50
2023/05/19 12:27:58;;;;;;;12.00;7.85;;;18.70;99.00;;;;;;5013318;28;20025;-52
2023/05/19 12:30:27;;;;;;;13.75;8.55;;;18.80;99.40;;;;;;5013093;28;20025;-53
2023/05/19 12:32:54;;;;;;;10.85;8.40;;;18.90;99.30;;;;;;5013192;28;20400;-53
2023/05/19 12:35:22;;;;;;;8.88;7.07;;;19.00;98.80;;;;;;5013048;28;20057;-49
2023/05/19 12:37:48;;;;;;;11.00;7.55;;;19.10;98.50;;;;;;5013264;28;20030;-52
2023/05/19 12:40:16;;;;;;;9.93;7.55;;;19.00;98.30;;;;;;5013307;28;20434;-50
2023/05/19 12:42:47;;;;;;;11.75;8.13;;;19.00;98.50;;;;;;4995537;28;20503;-49
2023/05/19 12:45:13;;;;;;;12.40;9.05;;;18.90;98.70;;;;;;5012754;28;20033;-51
2023/05/19 12:47:38;;;;;;;9.85;7.65;;;18.90;99.20;;;;;;5012931;28;20026;-51
2023/05/19 12:50:07;;;;;;;9.07;6.95;;;19.00;99.30;;;;;;4995257;28;20492;-48